RAIN

Not for real navigation. The accuracy of this data is not assured See disclaimer for more information



ICAO NAME COUNTRY WIND Kt GUST Kt VIS m TEMP/DEW C BARO METAR
LTAJ Gaziantep Turkey 14 0 200 7/7 30.09 LTAJ 190720Z 12014KT 0200 R28/0225D R10/0200U -RA FG VV001 07/07 Q1019 NOSIG
KSAT SAN ANTONIO INTERNATIONAL AIR TX United States 5 0 200 14/14 29.94 KSAT 190651Z 11005KT 0.125SM R13R/2600V5000FT -RA FG VV002 14/14 A2994 RMK AO2 RAB43 SLP124 P0000 T0
UCFO 2 0 250 3/3 30.15 UCFO 190700Z 36002KT 0250 R12/0400N RA FG BKN001 OVC033 03/03 Q1021 R12/29//50 NOSIG
KBOK Brookings, Brookings Airport OR United States 5 0 400 12/12 30.32 KBOK 190725Z AUTO 15005KT 0.25SM FG OVC002 12/12 A3032 RMK AO2 RAE04 P0000
WMKJ Johore Bharu / Senai Malaysia 7 0 400 26/24 29.83 WMKJ 190700Z VRB07KT 0400 +TSRA FEW016CB SCT018 BKN280 26/24 Q1010

Show more